createdAt,value
2019-03-29T00:01:06.841Z,103451.97
2019-03-29T00:03:35.030Z,103440.09
2019-03-29T00:06:03.034Z,103443.20
2019-03-29T00:08:30.860Z,103446.75
2019-03-29T00:10:58.650Z,103444.58
2019-03-29T00:13:26.398Z,103445.48
2019-03-29T00:15:54.175Z,103445.89
2019-03-29T00:18:21.925Z,103436.20
2019-03-29T00:20:49.692Z,103439.25
2019-03-29T00:23:17.434Z,103433.52
2019-03-29T00:25:45.222Z,103436.22
2019-03-29T00:28:12.985Z,103427.03
2019-03-29T00:30:43.411Z,103424.40
2019-03-29T00:33:11.276Z,103420.02
2019-03-29T00:35:40.737Z,103419.96
2019-03-29T00:38:08.682Z,103418.63
2019-03-29T00:40:56.756Z,103414.67
2019-03-29T00:43:24.669Z,103408.09
2019-03-29T00:45:52.778Z,103411.58
2019-03-29T00:48:21.230Z,103411.98
2019-03-29T00:50:49.785Z,103409.77
2019-03-29T00:53:17.699Z,103403.67
2019-03-29T00:55:46.895Z,103407.14
2019-03-29T00:58:15.028Z,103396.63
2019-03-29T01:00:42.901Z,103400.58
2019-03-29T01:03:11.047Z,103390.52
2019-03-29T01:05:39.114Z,103388.36
2019-03-29T01:08:10.043Z,103385.30
2019-03-29T01:10:36.952Z,103384.89
2019-03-29T01:13:04.729Z,103382.24
2019-03-29T01:15:32.593Z,103377.40
2019-03-29T01:18:00.417Z,103376.96
2019-03-29T01:20:28.254Z,103379.63
2019-03-29T01:22:56.031Z,103375.66
2019-03-29T01:25:23.940Z,103372.16
2019-03-29T01:27:51.867Z,103366.00
2019-03-29T01:30:19.756Z,103369.52
2019-03-29T01:32:47.559Z,103366.87
2019-03-29T01:35:15.456Z,103373.01
2019-03-29T01:37:43.316Z,103372.09
2019-03-29T01:40:11.144Z,103374.28
2019-03-29T01:42:39.029Z,103371.23
2019-03-29T01:45:07.224Z,103375.64
2019-03-29T01:47:34.972Z,103367.31
2019-03-29T01:50:03.875Z,103358.94
2019-03-29T01:52:31.714Z,103358.50
2019-03-29T01:54:59.444Z,103358.94
2019-03-29T01:57:27.291Z,103361.59
2019-03-29T01:59:55.028Z,103358.52
2019-03-29T02:02:22.747Z,103358.50
2019-03-29T02:04:50.601Z,103357.19
2019-03-29T02:07:18.353Z,103353.67
2019-03-29T02:09:46.159Z,103357.16
2019-03-29T02:12:13.884Z,103349.69
2019-03-29T02:14:41.643Z,103356.27
2019-03-29T02:17:09.398Z,103355.83
2019-03-29T02:19:37.126Z,103345.76
2019-03-29T02:22:04.865Z,103344.48
2019-03-29T02:24:32.639Z,103342.69
2019-03-29T02:27:00.989Z,103340.91
2019-03-29T02:29:28.951Z,103344.00
2019-03-29T02:31:57.137Z,103341.80
2019-03-29T02:34:25.104Z,103340.91
2019-03-29T02:36:52.860Z,103336.52
2019-03-29T02:39:20.633Z,103337.84
2019-03-29T02:41:48.408Z,103336.11
2019-03-29T02:44:16.148Z,103333.06
2019-03-29T02:46:43.929Z,103331.72
2019-03-29T02:49:12.807Z,103338.72
2019-03-29T02:51:41.446Z,103333.02
2019-03-29T02:54:09.296Z,103336.11
2019-03-29T02:56:37.046Z,103331.72
2019-03-29T02:59:04.783Z,103334.34
2019-03-29T03:01:32.586Z,103335.67
2019-03-29T03:04:00.328Z,103336.11
2019-03-29T03:06:28.241Z,103336.11
2019-03-29T03:09:12.436Z,103338.73
2019-03-29T03:11:25.844Z,103328.19
2019-03-29T03:13:53.655Z,103336.97
2019-03-29T03:16:21.433Z,103337.86
2019-03-29T03:18:49.213Z,103343.12
2019-03-29T03:21:16.978Z,103335.23
2019-03-29T03:23:44.775Z,103342.21
2019-03-29T03:26:12.577Z,103340.47
2019-03-29T03:28:40.300Z,103338.70
2019-03-29T03:31:08.042Z,103337.80
2019-03-29T03:33:35.855Z,103332.55
2019-03-29T03:36:03.611Z,103332.55
2019-03-29T03:38:31.337Z,103329.91
2019-03-29T03:40:59.117Z,103329.51
2019-03-29T03:43:26.894Z,103333.50
2019-03-29T03:45:54.641Z,103327.80
2019-03-29T03:48:22.393Z,103321.62
2019-03-29T03:50:50.134Z,103327.36
2019-03-29T03:53:17.874Z,103335.27
2019-03-29T03:55:45.622Z,103328.23
2019-03-29T03:58:13.378Z,103328.21
2019-03-29T04:00:51.273Z,103326.04
2019-03-29T04:03:19.105Z,103327.80
2019-03-29T04:05:46.886Z,103331.30
2019-03-29T04:08:14.624Z,103330.46
2019-03-29T04:10:42.486Z,103321.66
2019-03-29T04:13:10.182Z,103322.95
2019-03-29T04:15:37.960Z,103326.00
2019-03-29T04:18:05.685Z,103323.81
2019-03-29T04:20:33.402Z,103318.55
2019-03-29T04:23:01.168Z,103319.42
2019-03-29T04:25:28.910Z,103310.63
2019-03-29T04:27:56.689Z,103313.72
2019-03-29T04:30:24.439Z,103308.95
2019-03-29T04:32:52.256Z,103306.32
2019-03-29T04:35:20.074Z,103309.81
2019-03-29T04:37:47.997Z,103308.95
2019-03-29T04:40:15.750Z,103302.81
2019-03-29T04:42:43.461Z,103309.84
2019-03-29T04:45:11.275Z,103307.23
2019-03-29T04:47:39.091Z,103307.66
2019-03-29T04:50:06.915Z,103306.39
2019-03-29T04:52:34.798Z,103309.89
2019-03-29T04:55:02.696Z,103306.39
2019-03-29T04:57:30.454Z,103311.67
2019-03-29T04:59:58.255Z,103309.48
2019-03-29T05:02:26.194Z,103309.97
2019-03-29T05:04:54.468Z,103309.95
2019-03-29T05:07:23.087Z,103306.41
2019-03-29T05:09:50.907Z,103312.11
2019-03-29T05:12:18.681Z,103315.15
2019-03-29T05:14:46.538Z,103322.61
2019-03-29T05:17:14.301Z,103317.36
2019-03-29T05:19:44.562Z,103312.53
2019-03-29T05:22:11.705Z,103312.12
2019-03-29T05:24:39.490Z,103313.47
2019-03-29T05:27:07.241Z,103312.59
2019-03-29T05:29:35.015Z,103317.88
2019-03-29T05:32:02.789Z,103311.75
2019-03-29T05:34:35.445Z,103323.13
2019-03-29T05:37:26.625Z,103325.75
2019-03-29T05:39:54.494Z,103317.87
2019-03-29T05:42:29.304Z,103320.05
2019-03-29T05:44:59.656Z,103320.48
2019-03-29T05:47:30.007Z,103317.01
2019-03-29T05:50:03.978Z,103316.06
2019-03-29T05:52:34.339Z,103316.47
2019-03-29T05:55:04.309Z,103317.33
2019-03-29T05:57:33.241Z,103315.53
2019-03-29T06:00:00.951Z,103317.69
2019-03-29T06:02:29.202Z,103318.98
2019-03-29T06:04:59.073Z,103314.16
2019-03-29T06:07:26.922Z,103315.52
2019-03-29T06:09:54.770Z,103312.06
2019-03-29T06:12:22.540Z,103309.47
2019-03-29T06:14:50.273Z,103309.41
2019-03-29T06:17:18.051Z,103310.69
2019-03-29T06:19:45.792Z,103317.69
2019-03-29T06:22:13.582Z,103315.02
2019-03-29T06:24:41.383Z,103309.31
2019-03-29T06:27:09.112Z,103304.89
2019-03-29T06:29:38.710Z,103305.39
2019-03-29T06:32:12.377Z,103305.38
2019-03-29T06:34:45.675Z,103306.30
2019-03-29T06:37:16.420Z,103299.80
2019-03-29T06:39:45.121Z,103301.59
2019-03-29T06:42:16.545Z,103299.42
2019-03-29T06:44:44.593Z,103293.33
2019-03-29T06:47:18.291Z,103294.27
2019-03-29T06:49:47.310Z,103302.64
2019-03-29T06:52:15.688Z,103295.15
2019-03-29T06:54:43.615Z,103295.64
2019-03-29T06:57:12.095Z,103296.52
2019-03-29T06:59:40.285Z,103286.44
2019-03-29T07:02:08.547Z,103283.39
2019-03-29T07:04:36.507Z,103294.41
2019-03-29T07:07:04.299Z,103293.09
2019-03-29T07:09:32.158Z,103293.08
2019-03-29T07:11:59.986Z,103286.52
2019-03-29T07:14:27.769Z,103290.05
2019-03-29T07:16:55.487Z,103290.07
2019-03-29T07:19:23.264Z,103289.67
2019-03-29T07:21:51.012Z,103290.51
2019-03-29T07:24:18.901Z,103291.43
2019-03-29T07:26:46.672Z,103289.66
2019-03-29T07:29:14.427Z,103288.33
2019-03-29T07:31:42.207Z,103294.47
2019-03-29T07:34:10.050Z,103286.56
2019-03-29T07:36:37.831Z,103296.22
2019-03-29T07:39:06.298Z,103290.53
2019-03-29T07:41:34.027Z,103297.53
2019-03-29T07:44:01.807Z,103294.91
2019-03-29T07:46:29.611Z,103287.45
2019-03-29T07:48:57.458Z,103285.70
2019-03-29T07:51:25.206Z,103286.16
2019-03-29T07:53:53.001Z,103275.63
2019-03-29T07:56:20.723Z,103284.00
2019-03-29T07:58:48.522Z,103282.69
2019-03-29T08:01:16.496Z,103277.42
2019-03-29T08:03:44.373Z,103275.66
2019-03-29T08:06:12.384Z,103284.45
2019-03-29T08:08:40.224Z,103282.68
2019-03-29T08:11:08.132Z,103282.24
2019-03-29T08:13:35.942Z,103276.09
2019-03-29T08:16:06.597Z,103277.40
2019-03-29T08:18:33.536Z,103276.09
2019-03-29T08:21:01.307Z,103277.44
2019-03-29T08:23:29.063Z,103279.19
2019-03-29T08:25:56.995Z,103276.13
2019-03-29T08:28:24.779Z,103275.25
2019-03-29T08:30:52.464Z,103269.99
2019-03-29T08:33:20.214Z,103279.64
2019-03-29T08:35:48.023Z,103274.83
2019-03-29T08:38:15.751Z,103276.13
2019-03-29T08:40:45.261Z,103275.67
2019-03-29T08:43:13.369Z,103276.55
2019-03-29T08:45:41.083Z,103277.41
2019-03-29T08:48:08.864Z,103273.92
2019-03-29T08:50:37.011Z,103279.17
2019-03-29T08:53:04.701Z,103280.48
2019-03-29T08:55:45.221Z,103272.14
2019-03-29T08:58:02.094Z,103275.20
2019-03-29T09:00:30.255Z,103273.02
2019-03-29T09:02:58.092Z,103271.23
2019-03-29T09:05:25.826Z,103272.56
2019-03-29T09:07:53.653Z,103274.32
2019-03-29T09:10:23.342Z,103276.05
2019-03-29T09:12:51.191Z,103272.53
2019-03-29T09:15:18.953Z,103266.84
2019-03-29T09:17:46.783Z,103269.47
2019-03-29T09:20:14.572Z,103270.80
2019-03-29T09:22:42.402Z,103268.61
2019-03-29T09:25:10.201Z,103260.70
2019-03-29T09:27:38.101Z,103266.87
2019-03-29T09:30:05.930Z,103265.11
2019-03-29T09:32:34.018Z,103261.59
2019-03-29T09:35:02.220Z,103260.27
2019-03-29T09:37:33.479Z,103253.70
2019-03-29T09:40:01.328Z,103254.61
2019-03-29T09:42:30.310Z,103251.09
2019-03-29T09:44:58.454Z,103250.20
2019-03-29T09:47:27.633Z,103245.78
2019-03-29T09:49:55.622Z,103247.14
2019-03-29T09:52:23.444Z,103247.16
2019-03-29T09:54:54.066Z,103246.72
2019-03-29T09:57:21.103Z,103247.17
2019-03-29T09:59:48.933Z,103236.66
2019-03-29T10:02:16.854Z,103239.75
2019-03-29T10:04:44.672Z,103242.39
2019-03-29T10:07:12.514Z,103237.98
2019-03-29T10:09:40.543Z,103232.72
2019-03-29T10:12:08.405Z,103231.84
2019-03-29T10:14:36.209Z,103227.88
2019-03-29T10:17:04.058Z,103227.87
2019-03-29T10:19:31.934Z,103229.63
2019-03-29T10:21:59.731Z,103226.10
2019-03-29T10:24:27.586Z,103217.80
2019-03-29T10:26:56.428Z,103216.05
2019-03-29T10:29:24.394Z,103207.70
2019-03-29T10:31:52.228Z,103200.69
2019-03-29T10:34:20.086Z,103198.93
2019-03-29T10:36:47.895Z,103191.03
2019-03-29T10:39:15.764Z,103191.00
2019-03-29T10:41:43.555Z,103192.34
2019-03-29T10:44:11.574Z,103184.88
2019-03-29T10:46:39.456Z,103188.38
2019-03-29T10:49:07.456Z,103188.39
2019-03-29T10:51:35.328Z,103182.70
2019-03-29T10:54:03.120Z,103187.53
2019-03-29T10:56:34.474Z,103174.35
2019-03-29T10:59:00.679Z,103176.98
2019-03-29T11:01:28.627Z,103173.46
2019-03-29T11:03:56.488Z,103166.43
2019-03-29T11:06:24.465Z,103161.61
2019-03-29T11:08:59.418Z,103152.83
2019-03-29T11:11:27.233Z,103160.75
2019-03-29T11:13:56.617Z,103154.59
2019-03-29T11:16:25.002Z,103143.19
2019-03-29T11:18:53.146Z,103145.84
2019-03-29T11:21:21.116Z,103151.13
2019-03-29T11:23:49.231Z,103156.39
2019-03-29T11:26:17.282Z,103144.07
2019-03-29T11:28:45.352Z,103145.84
2019-03-29T11:31:13.423Z,103148.03
2019-03-29T11:33:41.377Z,103141.42
2019-03-29T11:36:09.405Z,103138.36
2019-03-29T11:38:37.487Z,103130.88
2019-03-29T11:41:05.453Z,103137.05
2019-03-29T11:43:33.448Z,103128.67
2019-03-29T11:46:01.795Z,103123.40
2019-03-29T11:48:29.854Z,103125.58
2019-03-29T11:50:57.799Z,103119.42
2019-03-29T11:53:25.855Z,103116.32
2019-03-29T11:55:53.808Z,103119.42
2019-03-29T11:58:21.798Z,103120.28
2019-03-29T12:00:49.872Z,103110.59
2019-03-29T12:03:17.899Z,103106.60
2019-03-29T12:05:45.723Z,103106.20
2019-03-29T12:08:13.557Z,103098.71
2019-03-29T12:10:41.479Z,103108.41
2019-03-29T12:13:09.314Z,103110.63
2019-03-29T12:15:37.384Z,103103.12
2019-03-29T12:18:05.223Z,103108.00
2019-03-29T12:20:33.027Z,103108.86
2019-03-29T12:23:00.864Z,103112.39
2019-03-29T12:25:28.800Z,103102.27
2019-03-29T12:27:58.344Z,103089.97
2019-03-29T12:30:31.750Z,103088.19
2019-03-29T12:32:55.806Z,103092.14
2019-03-29T12:35:23.638Z,103081.13
2019-03-29T12:37:51.430Z,103077.59
2019-03-29T12:40:19.305Z,103076.73
2019-03-29T12:42:47.159Z,103067.92
2019-03-29T12:45:15.056Z,103070.10
2019-03-29T12:47:42.867Z,103067.89
2019-03-29T12:50:10.939Z,103064.78
2019-03-29T12:52:39.143Z,103054.64
2019-03-29T12:55:07.005Z,103054.17
2019-03-29T12:57:34.797Z,103050.63
2019-03-29T13:00:02.699Z,103047.08
2019-03-29T13:02:34.579Z,103049.25
2019-03-29T13:05:01.874Z,103039.12
2019-03-29T13:07:29.675Z,103041.80
2019-03-29T13:09:57.490Z,103040.07
2019-03-29T13:12:25.340Z,103032.19
2019-03-29T13:14:53.159Z,103028.23
2019-03-29T13:17:21.098Z,103027.81
2019-03-29T13:19:48.900Z,103027.34
2019-03-29T13:22:16.995Z,103016.30
2019-03-29T13:24:45.135Z,103014.55
2019-03-29T13:27:12.970Z,103012.33
2019-03-29T13:29:40.809Z,103008.79
2019-03-29T13:32:08.606Z,103004.36
2019-03-29T13:34:36.412Z,102996.43
2019-03-29T13:37:04.193Z,102996.44
2019-03-29T13:39:31.972Z,102993.36
2019-03-29T13:41:59.892Z,102987.05
2019-03-29T13:44:28.418Z,102986.61
2019-03-29T13:46:56.313Z,102978.76
2019-03-29T13:49:24.170Z,102970.77
2019-03-29T13:51:51.952Z,102976.88
2019-03-29T13:54:19.723Z,102972.08
2019-03-29T13:56:47.594Z,102976.81
2019-03-29T13:59:15.374Z,102961.33
2019-03-29T14:01:43.179Z,102957.87
2019-03-29T14:04:10.999Z,102957.89
2019-03-29T14:06:38.792Z,102955.73
2019-03-29T14:09:06.734Z,102952.62
2019-03-29T14:11:34.527Z,102947.30
2019-03-29T14:14:02.378Z,102931.88
2019-03-29T14:16:30.164Z,102937.09
2019-03-29T14:18:57.980Z,102932.72
2019-03-29T14:21:25.767Z,102935.25
2019-03-29T14:23:53.594Z,102928.16
2019-03-29T14:26:21.392Z,102931.28
2019-03-29T14:28:49.196Z,102920.05
2019-03-29T14:31:17.019Z,102910.14
2019-03-29T14:33:44.802Z,102912.88
2019-03-29T14:36:12.614Z,102915.47
2019-03-29T14:38:40.398Z,102908.18
2019-03-29T14:41:08.218Z,102902.64
2019-03-29T14:43:36.006Z,102894.28
2019-03-29T14:46:03.836Z,102889.63
2019-03-29T14:48:31.698Z,102879.90
2019-03-29T14:50:59.537Z,102886.27
2019-03-29T14:53:27.334Z,102880.92
2019-03-29T14:55:55.162Z,102874.81
2019-03-29T14:58:22.998Z,102880.45
2019-03-29T15:00:50.786Z,102875.03
2019-03-29T15:03:18.607Z,102867.13
2019-03-29T15:05:46.410Z,102865.22
2019-03-29T15:08:14.230Z,102862.44
2019-03-29T15:10:42.064Z,102864.17
2019-03-29T15:13:09.888Z,102856.80
2019-03-29T15:15:37.818Z,102860.58
2019-03-29T15:18:05.723Z,102848.43
2019-03-29T15:20:33.498Z,102850.92
2019-03-29T15:23:01.326Z,102836.33
2019-03-29T15:25:29.146Z,102840.13
2019-03-29T15:27:57.057Z,102842.61
2019-03-29T15:30:24.861Z,102839.02
2019-03-29T15:32:52.705Z,102838.55
2019-03-29T15:35:21.012Z,102840.23
2019-03-29T15:37:48.926Z,102839.27
2019-03-29T15:40:16.747Z,102839.17
2019-03-29T15:42:44.582Z,102835.61
2019-03-29T15:45:20.228Z,102834.73
2019-03-29T15:47:42.362Z,102836.88
2019-03-29T15:50:10.203Z,102832.90
2019-03-29T15:52:37.991Z,102832.63
2019-03-29T15:55:06.014Z,102829.34
2019-03-29T15:57:33.807Z,102825.59
2019-03-29T16:00:01.597Z,102821.33
2019-03-29T16:02:29.522Z,102823.98
2019-03-29T16:04:57.329Z,102816.44
2019-03-29T16:07:25.128Z,102812.48
2019-03-29T16:09:52.985Z,102819.64
2019-03-29T16:12:20.778Z,102815.30
2019-03-29T16:14:48.605Z,102821.98
2019-03-29T16:17:16.443Z,102822.03
2019-03-29T16:19:44.237Z,102815.05
2019-03-29T16:22:12.095Z,102815.12
2019-03-29T16:24:39.881Z,102814.75
2019-03-29T16:27:07.677Z,102810.91
2019-03-29T16:29:35.506Z,102808.38
2019-03-29T16:32:03.333Z,102804.19
2019-03-29T16:34:31.143Z,102804.75
2019-03-29T16:36:58.961Z,102803.55
2019-03-29T16:39:26.807Z,102801.44
2019-03-29T16:41:54.624Z,102794.90
2019-03-29T16:44:22.419Z,102795.97
2019-03-29T16:46:50.210Z,102800.06
2019-03-29T16:49:18.185Z,102792.70
2019-03-29T16:51:45.978Z,102794.17
2019-03-29T16:54:13.804Z,102799.16
2019-03-29T16:56:41.616Z,102792.69
2019-03-29T16:59:09.411Z,102788.41
2019-03-29T17:01:37.211Z,102789.41
2019-03-29T17:04:05.039Z,102785.98
2019-03-29T17:06:32.950Z,102788.30
2019-03-29T17:09:00.748Z,102791.08
2019-03-29T17:11:28.536Z,102788.55
2019-03-29T17:13:56.338Z,102785.10
2019-03-29T17:16:30.385Z,102783.41
2019-03-29T17:18:53.838Z,102777.74
2019-03-29T17:21:21.625Z,102780.49
2019-03-29T17:26:16.569Z,102780.22
2019-03-29T17:28:44.354Z,102777.69
2019-03-29T17:31:13.025Z,102776.88
2019-03-29T17:33:40.819Z,102779.63
2019-03-29T17:36:08.722Z,102777.50
2019-03-29T17:38:36.498Z,102775.39
2019-03-29T17:41:04.315Z,102767.56
2019-03-29T17:43:32.128Z,102770.71
2019-03-29T17:45:59.917Z,102773.01
2019-03-29T17:48:27.736Z,102779.69
2019-03-29T17:50:55.592Z,102780.61
2019-03-29T17:53:23.441Z,102778.91
2019-03-29T17:55:51.231Z,102776.72
2019-03-29T17:58:19.015Z,102779.84
2019-03-29T18:00:46.819Z,102775.95
2019-03-29T18:03:14.744Z,102776.86
2019-03-29T18:05:42.526Z,102776.02
2019-03-29T18:08:10.312Z,102777.40
2019-03-29T18:10:38.114Z,102780.52
2019-03-29T18:13:05.919Z,102773.50
2019-03-29T18:15:33.741Z,102776.63
2019-03-29T18:18:01.566Z,102784.55
2019-03-29T18:20:29.395Z,102780.63
2019-03-29T18:22:57.224Z,102781.53
2019-03-29T18:25:25.032Z,102774.06
2019-03-29T18:27:52.811Z,102779.34
2019-03-29T18:30:49.855Z,102786.39
2019-03-29T18:33:17.639Z,102780.27
2019-03-29T18:35:45.452Z,102779.38
2019-03-29T18:38:13.231Z,102778.11
2019-03-29T18:40:41.077Z,102778.11
2019-03-29T18:43:08.873Z,102777.25
2019-03-29T18:45:36.665Z,102778.14
2019-03-29T18:48:04.477Z,102774.63
2019-03-29T18:50:32.307Z,102776.83
2019-03-29T18:53:00.088Z,102778.14
2019-03-29T18:55:27.904Z,102780.81
2019-03-29T18:57:55.686Z,102784.77
2019-03-29T19:00:29.407Z,102779.95
2019-03-29T19:02:57.197Z,102780.81
2019-03-29T19:05:25.227Z,102782.59
2019-03-29T19:07:53.027Z,102786.11
2019-03-29T19:10:20.822Z,102783.05
2019-03-29T19:12:48.645Z,102779.95
2019-03-29T19:15:16.453Z,102784.83
2019-03-29T19:17:44.260Z,102775.61
2019-03-29T19:20:26.248Z,102778.67
2019-03-29T19:22:41.809Z,102776.49
2019-03-29T19:25:09.607Z,102780.88
2019-03-29T19:27:37.386Z,102774.75
2019-03-29T19:30:05.565Z,102775.59
2019-03-29T19:32:33.388Z,102779.13
2019-03-29T19:35:01.177Z,102775.17
2019-03-29T19:37:29.114Z,102773.42
2019-03-29T19:39:56.899Z,102767.72
2019-03-29T19:42:24.745Z,102767.30
2019-03-29T19:44:52.590Z,102771.24
2019-03-29T19:47:20.406Z,102767.72
2019-03-29T19:49:48.289Z,102762.45
2019-03-29T19:52:16.071Z,102768.14
2019-03-29T19:54:43.865Z,102769.92
2019-03-29T19:57:11.679Z,102769.45
2019-03-29T19:59:39.480Z,102764.64
2019-03-29T20:02:07.309Z,102765.95
2019-03-29T20:04:35.183Z,102760.69
2019-03-29T20:07:03.465Z,102761.58
2019-03-29T20:09:31.276Z,102765.09
2019-03-29T20:11:59.070Z,102758.09
2019-03-29T20:14:26.884Z,102754.56
2019-03-29T20:16:55.375Z,102753.67
2019-03-29T20:19:23.218Z,102750.61
2019-03-29T20:21:51.026Z,102751.49
2019-03-29T20:24:18.805Z,102758.08
2019-03-29T20:26:46.724Z,102759.39
2019-03-29T20:29:14.506Z,102750.20
2019-03-29T20:31:42.271Z,102750.62
2019-03-29T20:34:10.093Z,102753.25
2019-03-29T20:36:37.882Z,102746.25
2019-03-29T20:39:06.691Z,102743.61
2019-03-29T20:41:34.466Z,102752.37
2019-03-29T20:44:02.306Z,102741.86
2019-03-29T20:46:30.098Z,102741.42
2019-03-29T20:48:57.965Z,102738.36
2019-03-29T20:51:25.786Z,102733.55
2019-03-29T20:53:53.595Z,102739.23
2019-03-29T20:56:21.418Z,102729.17
2019-03-29T20:58:49.209Z,102726.07
2019-03-29T21:01:17.023Z,102729.59
2019-03-29T21:03:44.833Z,102729.16
2019-03-29T21:06:12.653Z,102725.20
2019-03-29T21:08:40.479Z,102726.08
2019-03-29T21:11:08.407Z,102719.96
2019-03-29T21:13:36.370Z,102716.89
2019-03-29T21:16:04.218Z,102716.02
2019-03-29T21:18:32.013Z,102720.39
2019-03-29T21:20:59.796Z,102712.95
2019-03-29T21:23:27.634Z,102710.74
2019-03-29T21:25:55.422Z,102712.08
2019-03-29T21:28:23.209Z,102709.01
2019-03-29T21:30:51.019Z,102700.68
2019-03-29T21:33:18.797Z,102698.05
2019-03-29T21:35:46.654Z,102702.38
2019-03-29T21:38:14.478Z,102697.13
2019-03-29T21:40:42.270Z,102695.81
2019-03-29T21:43:10.095Z,102700.17
2019-03-29T21:45:37.901Z,102693.18
2019-03-29T21:48:27.209Z,102687.05
2019-03-29T21:50:35.444Z,102686.16
2019-03-29T21:53:03.368Z,102682.67
2019-03-29T21:55:31.151Z,102681.78
2019-03-29T21:57:58.935Z,102686.15
2019-03-29T22:00:26.746Z,102684.41
2019-03-29T22:02:54.518Z,102679.13
2019-03-29T22:05:22.354Z,102681.33
2019-03-29T22:07:50.143Z,102685.27
2019-03-29T22:10:18.059Z,102683.09
2019-03-29T22:12:45.833Z,102685.28
2019-03-29T22:15:13.625Z,102684.83
2019-03-29T22:17:41.434Z,102684.39
2019-03-29T22:20:09.302Z,102685.70
2019-03-29T22:22:37.142Z,102680.44
2019-03-29T22:25:05.457Z,102681.31
2019-03-29T22:27:33.288Z,102676.94
2019-03-29T22:30:01.194Z,102677.83
2019-03-29T22:32:28.986Z,102672.98
2019-03-29T22:34:56.761Z,102669.92
2019-03-29T22:37:24.582Z,102667.30
2019-03-29T22:39:52.382Z,102664.66
2019-03-29T22:42:20.233Z,102660.73
2019-03-29T22:44:48.020Z,102667.31
2019-03-29T22:47:15.815Z,102667.31
2019-03-29T22:49:43.672Z,102661.59
2019-03-29T22:52:11.473Z,102659.41
2019-03-29T22:54:39.273Z,102662.45
2019-03-29T22:57:07.061Z,102652.39
2019-03-29T22:59:34.893Z,102651.52
2019-03-29T23:02:02.877Z,102640.12
2019-03-29T23:04:30.659Z,102646.70
2019-03-29T23:06:58.457Z,102640.98
2019-03-29T23:09:26.236Z,102641.44
2019-03-29T23:11:54.043Z,102641.89
2019-03-29T23:14:21.814Z,102639.27
2019-03-29T23:16:49.630Z,102644.06
2019-03-29T23:19:17.413Z,102645.38
2019-03-29T23:21:45.320Z,102642.29
2019-03-29T23:24:13.118Z,102640.12
2019-03-29T23:26:40.913Z,102641.86
2019-03-29T23:29:08.730Z,102637.91
2019-03-29T23:31:36.549Z,102640.55
2019-03-29T23:34:04.343Z,102633.11
2019-03-29T23:36:32.137Z,102634.83
2019-03-29T23:38:59.946Z,102633.52
2019-03-29T23:41:27.756Z,102626.95
2019-03-29T23:43:55.542Z,102625.63
2019-03-29T23:46:23.490Z,102614.71
2019-03-29T23:48:51.299Z,102616.44
2019-03-29T23:51:19.122Z,102609.44
2019-03-29T23:53:47.172Z,102601.12
2019-03-29T23:56:15.030Z,102597.19
2019-03-29T23:58:42.883Z,102598.50
